createdAt,value
2018-08-30T00:02:20.129Z,4.70
2018-08-30T00:04:47.373Z,5.03
2018-08-30T00:07:14.897Z,3.63
2018-08-30T00:09:42.125Z,3.70
2018-08-30T00:12:09.398Z,3.80
2018-08-30T00:14:36.599Z,4.00
2018-08-30T00:17:03.877Z,6.17
2018-08-30T00:19:31.161Z,3.83
2018-08-30T00:21:58.437Z,4.83
2018-08-30T00:24:26.133Z,4.07
2018-08-30T00:26:53.345Z,5.60
2018-08-30T00:29:20.629Z,5.87
2018-08-30T00:31:47.866Z,5.53
2018-08-30T00:34:15.093Z,5.43
2018-08-30T00:36:42.904Z,5.50
2018-08-30T00:39:10.260Z,5.23
2018-08-30T00:41:37.554Z,5.70
2018-08-30T00:44:05.003Z,5.20
2018-08-30T00:46:32.202Z,5.80
2018-08-30T00:48:59.414Z,5.27
2018-08-30T00:51:26.653Z,6.00
2018-08-30T00:53:53.914Z,5.53
2018-08-30T00:56:21.113Z,6.23
2018-08-30T00:58:48.334Z,6.13
2018-08-30T01:01:15.586Z,6.40
2018-08-30T01:03:42.842Z,6.40
2018-08-30T01:06:10.057Z,7.30
2018-08-30T01:08:37.285Z,6.40
2018-08-30T01:11:04.517Z,6.27
2018-08-30T01:13:31.729Z,6.97
2018-08-30T01:15:58.966Z,7.53
2018-08-30T01:18:26.169Z,7.73
2018-08-30T01:20:53.433Z,8.57
2018-08-30T01:23:20.685Z,8.17
2018-08-30T01:25:48.077Z,7.60
2018-08-30T01:28:15.289Z,8.63
2018-08-30T01:30:42.564Z,7.70
2018-08-30T01:33:09.789Z,7.50
2018-08-30T01:35:37.015Z,6.50
2018-08-30T01:38:04.249Z,7.03
2018-08-30T01:40:31.489Z,7.50
2018-08-30T01:42:58.715Z,6.50
2018-08-30T01:45:25.952Z,8.10
2018-08-30T01:47:53.165Z,7.97
2018-08-30T01:50:20.397Z,7.20
2018-08-30T01:52:47.629Z,6.40
2018-08-30T01:55:14.863Z,7.07
2018-08-30T01:57:42.138Z,8.10
2018-08-30T02:00:09.374Z,6.80
2018-08-30T02:02:36.609Z,7.40
2018-08-30T02:05:03.881Z,8.07
2018-08-30T02:07:31.170Z,7.57
2018-08-30T02:09:58.399Z,8.30
2018-08-30T02:12:25.653Z,7.87
2018-08-30T02:14:52.865Z,9.77
2018-08-30T02:17:20.081Z,11.80
2018-08-30T02:19:47.337Z,12.07
2018-08-30T02:22:14.577Z,14.70
2018-08-30T02:24:41.798Z,15.10
2018-08-30T02:27:09.042Z,14.30
2018-08-30T02:29:36.261Z,15.23
2018-08-30T02:32:03.494Z,16.37
2018-08-30T02:34:30.700Z,15.67
2018-08-30T02:36:57.937Z,17.60
2018-08-30T02:39:25.164Z,17.00
2018-08-30T02:41:52.386Z,17.60
2018-08-30T02:44:19.640Z,16.40
2018-08-30T02:46:46.869Z,16.40
2018-08-30T02:49:14.190Z,16.67
2018-08-30T02:51:41.402Z,15.47
2018-08-30T02:54:08.638Z,15.40
2018-08-30T02:56:35.910Z,16.47
2018-08-30T02:59:03.190Z,14.57
2018-08-30T03:01:30.410Z,16.70
2018-08-30T03:03:57.630Z,17.13
2018-08-30T03:06:24.871Z,16.20
2018-08-30T03:08:52.086Z,16.57
2018-08-30T03:11:19.289Z,16.07
2018-08-30T03:13:46.514Z,17.67
2018-08-30T03:16:13.733Z,16.50
2018-08-30T03:18:40.950Z,16.50
2018-08-30T03:21:08.195Z,15.70
2018-08-30T03:23:35.410Z,16.30
2018-08-30T03:26:02.654Z,16.73
2018-08-30T03:28:29.890Z,16.20
2018-08-30T03:30:57.142Z,16.80
2018-08-30T03:33:24.314Z,16.93
2018-08-30T03:35:51.525Z,15.83
2018-08-30T03:38:18.762Z,14.37
2018-08-30T03:40:46.010Z,11.03
2018-08-30T03:43:13.228Z,10.70
2018-08-30T03:45:40.465Z,7.17
2018-08-30T03:48:07.761Z,6.63
2018-08-30T03:50:35.128Z,6.13
2018-08-30T03:53:02.365Z,5.00
2018-08-30T03:55:29.589Z,6.20
2018-08-30T03:57:56.822Z,6.77
2018-08-30T04:00:24.058Z,5.83
2018-08-30T04:02:51.266Z,5.40
2018-08-30T04:05:18.485Z,5.37
2018-08-30T04:07:45.693Z,5.90
2018-08-30T04:10:12.909Z,4.93
2018-08-30T04:12:40.103Z,4.90
2018-08-30T04:15:07.397Z,5.10
2018-08-30T04:17:34.592Z,5.47
2018-08-30T04:20:01.897Z,5.90
2018-08-30T04:22:29.122Z,5.60
2018-08-30T04:24:56.314Z,7.03
2018-08-30T04:27:23.573Z,6.00
2018-08-30T04:29:50.832Z,5.93
2018-08-30T04:32:18.045Z,6.20
2018-08-30T04:34:45.275Z,5.80
2018-08-30T04:37:12.650Z,6.30
2018-08-30T04:39:39.879Z,5.17
2018-08-30T04:42:09.609Z,5.73
2018-08-30T04:44:36.769Z,5.37
2018-08-30T04:47:04.061Z,5.17
2018-08-30T04:49:31.281Z,6.17
2018-08-30T04:51:58.521Z,5.17
2018-08-30T04:54:25.761Z,5.53
2018-08-30T04:56:52.977Z,6.20
2018-08-30T04:59:20.169Z,5.40
2018-08-30T05:01:47.483Z,5.33
2018-08-30T05:04:14.646Z,4.77
2018-08-30T05:06:41.841Z,4.23
2018-08-30T05:09:10.445Z,3.93
2018-08-30T05:11:37.689Z,4.50
2018-08-30T05:14:04.968Z,5.23
2018-08-30T05:16:32.172Z,4.20
2018-08-30T05:18:59.393Z,4.43
2018-08-30T05:21:26.605Z,4.77
2018-08-30T05:23:53.869Z,4.13
2018-08-30T05:26:21.065Z,4.00
2018-08-30T05:28:48.265Z,3.90
2018-08-30T05:31:15.550Z,4.00
2018-08-30T05:33:42.765Z,3.90
2018-08-30T05:36:09.970Z,4.40
2018-08-30T05:38:37.213Z,4.20
2018-08-30T05:41:04.505Z,4.13
2018-08-30T05:43:31.745Z,4.10
2018-08-30T05:45:58.951Z,4.30
2018-08-30T05:48:26.162Z,3.73
2018-08-30T05:50:53.390Z,2.80
2018-08-30T05:53:20.625Z,3.83
2018-08-30T05:55:47.885Z,2.90
2018-08-30T05:58:15.169Z,3.20
2018-08-30T06:00:42.389Z,2.73
2018-08-30T06:03:09.577Z,3.03
2018-08-30T06:05:36.794Z,3.30
2018-08-30T06:08:04.093Z,4.53
2018-08-30T06:10:31.350Z,4.20
2018-08-30T06:12:58.565Z,4.40
2018-08-30T06:15:25.762Z,4.60
2018-08-30T06:17:52.962Z,4.13
2018-08-30T06:20:20.169Z,3.90
2018-08-30T06:22:47.369Z,4.70
2018-08-30T06:25:14.585Z,3.93
2018-08-30T06:27:41.796Z,4.03
2018-08-30T06:30:09.018Z,4.70
2018-08-30T06:32:36.253Z,3.57
2018-08-30T06:35:03.484Z,4.03
2018-08-30T06:37:30.719Z,3.80
2018-08-30T06:39:57.929Z,5.23
2018-08-30T06:42:25.147Z,4.30
2018-08-30T06:44:52.369Z,4.40
2018-08-30T06:47:19.570Z,3.10
2018-08-30T06:49:46.770Z,3.30
2018-08-30T06:52:13.993Z,3.13
2018-08-30T06:54:41.205Z,2.90
2018-08-30T06:57:08.450Z,2.90
2018-08-30T06:59:36.005Z,3.37
2018-08-30T07:02:03.513Z,4.43
2018-08-30T07:04:30.739Z,3.70
2018-08-30T07:06:57.949Z,3.47
2018-08-30T07:09:25.149Z,3.60
2018-08-30T07:11:52.469Z,4.07
2018-08-30T07:14:19.693Z,4.33
2018-08-30T07:16:46.909Z,4.37
2018-08-30T07:19:14.106Z,4.33
2018-08-30T07:21:41.317Z,3.97
2018-08-30T07:24:08.542Z,4.53
2018-08-30T07:26:35.719Z,4.50
2018-08-30T07:29:03.001Z,6.10
2018-08-30T07:31:30.213Z,7.03
2018-08-30T07:33:57.443Z,8.23
2018-08-30T07:36:24.657Z,10.10
2018-08-30T07:38:51.869Z,8.10
2018-08-30T07:41:19.073Z,7.47
2018-08-30T07:43:46.289Z,8.30
2018-08-30T07:46:13.613Z,7.60
2018-08-30T07:48:40.957Z,7.60
2018-08-30T07:51:08.406Z,7.90
2018-08-30T07:53:35.491Z,8.80
2018-08-30T07:56:02.981Z,9.03
2018-08-30T07:58:30.302Z,9.13
2018-08-30T08:00:57.567Z,8.63
2018-08-30T08:03:24.942Z,9.53
2018-08-30T08:05:52.380Z,9.47
2018-08-30T08:08:19.655Z,10.00
2018-08-30T08:10:46.913Z,9.80
2018-08-30T08:13:14.205Z,9.63
2018-08-30T08:15:41.571Z,9.67
2018-08-30T08:18:08.955Z,10.17
2018-08-30T08:20:36.305Z,10.30
2018-08-30T08:23:03.577Z,9.60
2018-08-30T08:25:37.657Z,10.87
2018-08-30T08:28:04.979Z,11.10
2018-08-30T08:30:32.247Z,9.50
2018-08-30T08:32:59.516Z,10.77
2018-08-30T08:35:26.786Z,10.03
2018-08-30T08:37:54.081Z,11.57
2018-08-30T08:40:21.376Z,11.93
2018-08-30T08:42:48.658Z,10.67
2018-08-30T08:45:15.945Z,10.83
2018-08-30T08:47:43.312Z,11.33
2018-08-30T08:50:10.589Z,12.20
2018-08-30T08:52:37.862Z,11.40
2018-08-30T08:55:05.197Z,11.27
2018-08-30T08:57:32.465Z,11.87
2018-08-30T08:59:59.857Z,12.03
2018-08-30T09:02:27.134Z,11.60
2018-08-30T09:04:54.422Z,11.17
2018-08-30T09:07:21.785Z,12.57
2018-08-30T09:09:49.116Z,12.73
2018-08-30T09:12:16.394Z,11.87
2018-08-30T09:14:43.650Z,12.27
2018-08-30T09:17:11.025Z,11.67
2018-08-30T09:19:38.318Z,12.30
2018-08-30T09:22:05.658Z,12.93
2018-08-30T09:24:32.948Z,12.87
2018-08-30T09:27:00.240Z,13.27
2018-08-30T09:29:27.511Z,11.33
2018-08-30T09:31:54.806Z,12.10
2018-08-30T09:34:22.071Z,12.40
2018-08-30T09:36:49.354Z,12.33
2018-08-30T09:39:16.617Z,12.50
2018-08-30T09:41:43.893Z,12.60
2018-08-30T09:44:11.169Z,12.87
2018-08-30T09:46:38.458Z,12.27
2018-08-30T09:49:05.786Z,14.33
2018-08-30T09:51:33.137Z,13.03
2018-08-30T09:54:00.461Z,13.23
2018-08-30T09:56:27.719Z,12.90
2018-08-30T09:58:55.481Z,12.90
2018-08-30T10:01:28.329Z,12.37
2018-08-30T10:03:55.722Z,14.00
2018-08-30T10:06:22.941Z,12.30
2018-08-30T10:08:50.273Z,11.97
2018-08-30T10:11:17.581Z,10.97
2018-08-30T10:13:44.853Z,12.37
2018-08-30T10:16:12.129Z,12.73
2018-08-30T10:18:39.415Z,13.00
2018-08-30T10:21:06.699Z,13.30
2018-08-30T10:23:33.978Z,12.80
2018-08-30T10:26:01.235Z,12.63
2018-08-30T10:28:28.517Z,13.70
2018-08-30T10:30:55.936Z,12.70
2018-08-30T10:33:23.221Z,11.80
2018-08-30T10:35:50.573Z,12.30
2018-08-30T10:38:17.874Z,11.77
2018-08-30T10:40:45.147Z,11.70
2018-08-30T10:43:12.502Z,11.60
2018-08-30T10:45:39.783Z,12.30
2018-08-30T10:48:07.246Z,12.03
2018-08-30T10:50:34.526Z,11.73
2018-08-30T10:53:01.795Z,11.00
2018-08-30T10:55:29.086Z,10.60
2018-08-30T10:57:56.333Z,10.80
2018-08-30T11:00:23.644Z,10.57
2018-08-30T11:02:50.945Z,10.50
2018-08-30T11:05:18.272Z,10.93
2018-08-30T11:07:45.626Z,11.90
2018-08-30T11:10:12.898Z,12.50
2018-08-30T11:12:40.220Z,11.20
2018-08-30T11:15:07.528Z,11.37
2018-08-30T11:17:34.787Z,11.87
2018-08-30T11:20:02.096Z,13.80
2018-08-30T11:22:29.374Z,11.43
2018-08-30T11:24:56.653Z,11.70
2018-08-30T11:27:23.967Z,12.07
2018-08-30T11:29:51.231Z,12.17
2018-08-30T11:32:18.610Z,12.20
2018-08-30T11:34:45.893Z,13.83
2018-08-30T11:37:13.197Z,13.40
2018-08-30T11:39:40.491Z,13.53
2018-08-30T11:42:07.773Z,13.33
2018-08-30T11:44:35.073Z,13.53
2018-08-30T11:47:02.345Z,12.47
2018-08-30T11:49:29.610Z,13.03
2018-08-30T11:51:56.915Z,13.53
2018-08-30T11:54:24.277Z,13.33
2018-08-30T11:56:51.550Z,13.73
2018-08-30T11:59:18.829Z,12.50
2018-08-30T12:01:46.106Z,13.77
2018-08-30T12:04:13.494Z,13.40
2018-08-30T12:06:40.785Z,12.60
2018-08-30T12:09:09.385Z,13.40
2018-08-30T12:11:37.560Z,14.50
2018-08-30T12:14:04.869Z,13.13
2018-08-30T12:16:32.521Z,13.17
2018-08-30T12:18:59.875Z,12.87
2018-08-30T12:21:27.240Z,12.87
2018-08-30T12:23:54.489Z,11.63
2018-08-30T12:26:21.839Z,12.40
2018-08-30T12:28:49.184Z,12.30
2018-08-30T12:31:16.833Z,12.90
2018-08-30T12:33:44.452Z,13.30
2018-08-30T12:36:11.890Z,12.50
2018-08-30T12:38:39.072Z,13.93
2018-08-30T12:41:06.449Z,14.30
2018-08-30T12:43:33.762Z,13.97
2018-08-30T12:46:01.200Z,11.33
2018-08-30T12:48:28.551Z,13.00
2018-08-30T12:50:56.714Z,12.37
2018-08-30T12:53:23.925Z,13.30
2018-08-30T12:55:51.161Z,13.83
2018-08-30T12:58:18.543Z,13.83
2018-08-30T13:00:45.705Z,12.30
2018-08-30T13:03:13.182Z,13.03
2018-08-30T13:05:40.530Z,11.97
2018-08-30T13:08:07.677Z,13.43
2018-08-30T13:10:35.079Z,12.67
2018-08-30T13:13:02.352Z,14.00
2018-08-30T13:15:29.616Z,13.23
2018-08-30T13:17:56.973Z,12.53
2018-08-30T13:20:24.254Z,13.77
2018-08-30T13:22:51.533Z,12.80
2018-08-30T13:25:19.017Z,13.50
2018-08-30T13:27:47.065Z,13.07
2018-08-30T13:30:14.386Z,13.73
2018-08-30T13:32:41.898Z,13.37
2018-08-30T13:35:09.117Z,13.37
2018-08-30T13:37:36.287Z,14.03
2018-08-30T13:40:03.918Z,14.20
2018-08-30T13:42:31.034Z,14.20
2018-08-30T13:44:58.435Z,13.33
2018-08-30T13:47:25.471Z,12.67
2018-08-30T13:49:52.663Z,12.40
2018-08-30T13:52:20.367Z,12.97
2018-08-30T13:54:47.645Z,12.53
2018-08-30T13:57:15.159Z,13.50
2018-08-30T13:59:42.238Z,14.53
2018-08-30T14:02:09.394Z,14.90
2018-08-30T14:04:36.866Z,12.50
2018-08-30T14:07:04.163Z,14.30
2018-08-30T14:09:31.564Z,12.30
2018-08-30T14:11:58.752Z,12.90
2018-08-30T14:14:26.034Z,12.03
2018-08-30T14:16:53.017Z,13.50
2018-08-30T14:19:20.448Z,13.50
2018-08-30T14:21:47.632Z,12.23
2018-08-30T14:24:14.938Z,13.13
2018-08-30T14:26:42.257Z,11.80
2018-08-30T14:29:09.465Z,12.30
2018-08-30T14:31:36.729Z,13.23
2018-08-30T14:34:03.989Z,12.43
2018-08-30T14:36:31.299Z,12.30
2018-08-30T14:38:58.601Z,11.70
2018-08-30T14:41:26.022Z,11.23
2018-08-30T14:43:53.160Z,10.87
2018-08-30T14:46:20.433Z,12.60
2018-08-30T14:48:47.861Z,12.67
2018-08-30T14:51:15.170Z,12.40
2018-08-30T14:53:42.436Z,12.60
2018-08-30T14:56:09.797Z,12.70
2018-08-30T14:58:37.621Z,12.00
2018-08-30T15:01:05.122Z,11.00
2018-08-30T15:03:32.380Z,10.13
2018-08-30T15:05:59.878Z,11.90
2018-08-30T15:08:27.065Z,11.20
2018-08-30T15:10:54.409Z,12.13
2018-08-30T15:13:21.753Z,11.40
2018-08-30T15:15:49.033Z,12.73
2018-08-30T15:18:16.302Z,12.77
2018-08-30T15:20:43.665Z,12.97
2018-08-30T15:23:10.982Z,11.97
2018-08-30T15:25:38.274Z,13.10
2018-08-30T15:28:05.690Z,13.33
2018-08-30T15:30:32.961Z,11.50
2018-08-30T15:33:00.238Z,11.00
2018-08-30T15:35:27.567Z,11.60
2018-08-30T15:37:54.778Z,10.23
2018-08-30T15:40:22.073Z,10.50
2018-08-30T15:42:49.352Z,10.40
2018-08-30T15:45:16.663Z,10.90
2018-08-30T15:47:43.983Z,11.80
2018-08-30T15:50:11.529Z,11.13
2018-08-30T15:52:39.334Z,11.03
2018-08-30T15:55:06.593Z,10.73
2018-08-30T15:57:33.830Z,10.73
2018-08-30T16:00:01.227Z,9.83
2018-08-30T16:02:28.471Z,9.73
2018-08-30T16:04:55.771Z,10.07
2018-08-30T16:07:22.985Z,10.97
2018-08-30T16:09:50.185Z,10.30
2018-08-30T16:12:17.397Z,9.90
2018-08-30T16:14:44.625Z,11.90
2018-08-30T16:17:11.865Z,9.20
2018-08-30T16:19:39.241Z,10.10
2018-08-30T16:22:06.475Z,10.30
2018-08-30T16:24:33.800Z,9.17
2018-08-30T16:27:01.026Z,9.00
2018-08-30T16:29:28.245Z,9.07
2018-08-30T16:31:55.465Z,8.57
2018-08-30T16:34:22.685Z,9.60
2018-08-30T16:36:49.913Z,8.63
2018-08-30T16:39:17.134Z,9.80
2018-08-30T16:41:45.229Z,8.90
2018-08-30T16:44:12.414Z,10.07
2018-08-30T16:46:39.641Z,9.87
2018-08-30T16:49:07.232Z,9.10
2018-08-30T16:51:34.429Z,9.33
2018-08-30T16:54:01.685Z,9.40
2018-08-30T16:56:28.957Z,9.23
2018-08-30T16:58:56.228Z,8.97
2018-08-30T17:01:23.485Z,8.70
2018-08-30T17:03:50.769Z,10.07
2018-08-30T17:06:18.104Z,9.73
2018-08-30T17:08:45.445Z,9.93
2018-08-30T17:11:12.626Z,8.93
2018-08-30T17:13:39.967Z,8.63
2018-08-30T17:16:07.181Z,9.70
2018-08-30T17:18:34.513Z,9.60
2018-08-30T17:21:01.832Z,8.20
2018-08-30T17:23:29.101Z,8.80
2018-08-30T17:25:56.378Z,9.60
2018-08-30T17:28:23.653Z,8.53
2018-08-30T17:30:50.936Z,9.30
2018-08-30T17:33:18.198Z,9.20
2018-08-30T17:35:45.468Z,10.70
2018-08-30T17:38:12.739Z,10.90
2018-08-30T17:40:40.037Z,10.20
2018-08-30T17:43:07.373Z,9.93
2018-08-30T17:45:34.724Z,10.67
2018-08-30T17:48:01.989Z,9.80
2018-08-30T17:50:29.462Z,10.57
2018-08-30T17:52:56.714Z,10.13
2018-08-30T17:55:24.082Z,11.07
2018-08-30T17:57:51.326Z,10.10
2018-08-30T18:00:18.768Z,10.40
2018-08-30T18:02:46.506Z,10.80
2018-08-30T18:05:14.570Z,10.40
2018-08-30T18:07:41.924Z,8.67
2018-08-30T18:10:09.521Z,9.77
2018-08-30T18:12:37.341Z,11.10
2018-08-30T18:15:05.478Z,9.00
2018-08-30T18:17:32.689Z,9.13
2018-08-30T18:19:59.993Z,9.30
2018-08-30T18:22:27.357Z,8.80
2018-08-30T18:24:54.554Z,9.37
2018-08-30T18:27:21.790Z,9.40
2018-08-30T18:29:49.014Z,9.43
2018-08-30T18:32:16.325Z,9.60
2018-08-30T18:34:43.530Z,9.80
2018-08-30T18:37:10.753Z,9.77
2018-08-30T18:39:38.009Z,10.63
2018-08-30T18:42:05.441Z,9.17
2018-08-30T18:44:32.662Z,8.33
2018-08-30T18:46:59.885Z,8.50
2018-08-30T18:49:27.204Z,8.80
2018-08-30T18:51:54.443Z,9.77
2018-08-30T18:54:21.745Z,8.67
2018-08-30T18:56:49.031Z,9.67
2018-08-30T18:59:16.328Z,9.30
2018-08-30T19:01:43.741Z,9.70
2018-08-30T19:04:11.018Z,8.60
2018-08-30T19:06:38.309Z,9.10
2018-08-30T19:09:07.726Z,8.20
2018-08-30T19:11:35.019Z,8.77
2018-08-30T19:14:02.598Z,9.27
2018-08-30T19:16:39.481Z,8.10
2018-08-30T19:19:12.910Z,9.43
2018-08-30T19:21:40.214Z,8.60
2018-08-30T19:24:12.406Z,9.00
2018-08-30T19:26:39.717Z,8.30
2018-08-30T19:29:07.005Z,8.70
2018-08-30T19:31:34.417Z,9.07
2018-08-30T19:34:01.952Z,8.90
2018-08-30T19:36:30.499Z,10.83
2018-08-30T19:38:57.851Z,9.30
2018-08-30T19:41:25.189Z,10.03
2018-08-30T19:43:59.261Z,10.20
2018-08-30T19:46:32.258Z,9.80
2018-08-30T19:48:59.569Z,9.23
2018-08-30T19:51:26.886Z,8.80
2018-08-30T19:53:54.181Z,9.30
2018-08-30T19:56:21.498Z,9.80
2018-08-30T19:58:48.780Z,9.07
2018-08-30T20:01:16.065Z,9.47
2018-08-30T20:03:43.397Z,9.70
2018-08-30T20:06:10.663Z,9.70
2018-08-30T20:08:38.013Z,9.17
2018-08-30T20:11:05.551Z,9.33
2018-08-30T20:13:32.871Z,9.87
2018-08-30T20:16:00.137Z,9.00
2018-08-30T20:18:27.561Z,9.10
2018-08-30T20:20:54.914Z,10.30
2018-08-30T20:23:22.175Z,9.00
2018-08-30T20:25:49.517Z,10.30
2018-08-30T20:28:16.793Z,10.50
2018-08-30T20:30:44.121Z,9.03
2018-08-30T20:33:11.417Z,10.10
2018-08-30T20:35:39.058Z,9.53
2018-08-30T20:38:06.490Z,8.67
2018-08-30T20:40:33.785Z,9.67
2018-08-30T20:43:01.073Z,8.73
2018-08-30T20:45:28.650Z,9.23
2018-08-30T20:47:56.073Z,9.90
2018-08-30T20:50:23.433Z,10.10
2018-08-30T20:52:50.702Z,9.43
2018-08-30T20:55:17.986Z,9.87
2018-08-30T20:57:45.282Z,9.03
2018-08-30T21:00:12.616Z,9.10
2018-08-30T21:02:39.917Z,8.00
2018-08-30T21:05:07.400Z,8.83
2018-08-30T21:07:34.850Z,8.50
2018-08-30T21:10:02.209Z,9.90
2018-08-30T21:12:29.558Z,10.97
2018-08-30T21:14:56.833Z,9.70
2018-08-30T21:17:24.122Z,9.23
2018-08-30T21:19:51.582Z,10.13
2018-08-30T21:22:18.871Z,10.13
2018-08-30T21:24:46.232Z,9.10
2018-08-30T21:27:13.661Z,8.67
2018-08-30T21:29:40.947Z,8.93
2018-08-30T21:32:08.204Z,8.93
2018-08-30T21:34:35.615Z,8.10
2018-08-30T21:37:05.917Z,6.80
2018-08-30T21:39:33.812Z,7.03
2018-08-30T21:42:01.081Z,8.03
2018-08-30T21:44:28.376Z,7.93
2018-08-30T21:46:55.864Z,8.40
2018-08-30T21:49:23.305Z,7.17
2018-08-30T21:51:51.130Z,7.80
2018-08-30T21:54:18.402Z,7.87
2018-08-30T21:56:45.665Z,7.27
2018-08-30T21:59:12.938Z,8.07
2018-08-30T22:01:40.269Z,7.70
2018-08-30T22:04:07.569Z,7.63
2018-08-30T22:06:34.950Z,8.10
2018-08-30T22:09:02.285Z,8.70
2018-08-30T22:11:29.476Z,9.30
2018-08-30T22:13:56.869Z,9.17
2018-08-30T22:16:24.220Z,8.40
2018-08-30T22:18:51.437Z,8.20
2018-08-30T22:21:18.738Z,9.50
2018-08-30T22:23:46.026Z,8.63
2018-08-30T22:26:13.449Z,9.07
2018-08-30T22:28:40.653Z,9.77
2018-08-30T22:31:07.872Z,8.37
2018-08-30T22:33:35.149Z,8.60
2018-08-30T22:36:02.780Z,8.67
2018-08-30T22:38:30.074Z,8.40
2018-08-30T22:40:57.274Z,9.03
2018-08-30T22:43:24.613Z,9.17
2018-08-30T22:45:51.893Z,9.50
2018-08-30T22:48:19.110Z,8.80
2018-08-30T22:50:46.331Z,8.60
2018-08-30T22:53:13.913Z,7.40
2018-08-30T22:55:41.238Z,7.23
2018-08-30T22:58:08.708Z,7.80
2018-08-30T23:00:35.950Z,9.00
2018-08-30T23:03:03.633Z,8.03
2018-08-30T23:05:31.015Z,9.17
2018-08-30T23:07:58.386Z,9.80
2018-08-30T23:10:26.052Z,8.70
2018-08-30T23:12:53.269Z,8.27
2018-08-30T23:15:20.734Z,8.30
2018-08-30T23:17:47.974Z,9.27
2018-08-30T23:20:15.229Z,8.07
2018-08-30T23:22:42.426Z,7.80
2018-08-30T23:25:09.629Z,9.20
2018-08-30T23:27:37.161Z,8.50
2018-08-30T23:30:05.217Z,8.73
2018-08-30T23:32:32.561Z,8.30
2018-08-30T23:34:59.765Z,8.70
2018-08-30T23:37:27.198Z,8.90
2018-08-30T23:39:54.398Z,8.97
2018-08-30T23:42:21.617Z,9.10
2018-08-30T23:44:48.830Z,8.90
2018-08-30T23:47:16.211Z,8.67
2018-08-30T23:49:49.213Z,8.10
2018-08-30T23:52:16.577Z,7.30
2018-08-30T23:54:43.904Z,7.10
2018-08-30T23:57:11.150Z,8.60
